sensor_id;sensor_type;location;lat;lon;timestamp;pressure;altitude;pressure_sealevel;temperature;humidity
35758;BME280;21879;50.110;18.900;2023-05-08T00:06:39;99596.11;;;7.65;62.84
35758;BME280;21879;50.110;18.900;2023-05-08T00:17:05;99595.41;;;7.64;62.99
35758;BME280;21879;50.110;18.900;2023-05-08T00:27:31;99600.98;;;7.67;62.88
35758;BME280;21879;50.110;18.900;2023-05-08T00:37:57;99598.23;;;7.57;62.89
35758;BME280;21879;50.110;18.900;2023-05-08T00:48:23;99592.91;;;7.70;62.96
35758;BME280;21879;50.110;18.900;2023-05-08T00:58:50;99590.57;;;7.54;62.85
35758;BME280;21879;50.110;18.900;2023-05-08T01:09:16;99594.02;;;7.64;63.07
35758;BME280;21879;50.110;18.900;2023-05-08T01:19:54;99600.20;;;7.61;62.69
35758;BME280;21879;50.110;18.900;2023-05-08T01:30:45;99607.02;;;7.55;62.77
35758;BME280;21879;50.110;18.900;2023-05-08T01:41:25;99615.71;;;7.47;62.69
35758;BME280;21879;50.110;18.900;2023-05-08T01:51:59;99621.42;;;7.47;62.91
35758;BME280;21879;50.110;18.900;2023-05-08T02:02:28;99619.05;;;7.41;62.56
35758;BME280;21879;50.110;18.900;2023-05-08T02:12:56;99614.56;;;7.31;62.64
35758;BME280;21879;50.110;18.900;2023-05-08T02:23:24;99619.14;;;7.25;62.62
35758;BME280;21879;50.110;18.900;2023-05-08T02:33:52;99619.67;;;7.27;62.76
35758;BME280;21879;50.110;18.900;2023-05-08T02:44:17;99619.11;;;7.24;62.87
35758;BME280;21879;50.110;18.900;2023-05-08T02:54:50;99619.05;;;7.22;62.82
35758;BME280;21879;50.110;18.900;2023-05-08T03:05:18;99626.41;;;7.26;62.72
35758;BME280;21879;50.110;18.900;2023-05-08T03:15:47;99636.07;;;7.15;62.51
35758;BME280;21879;50.110;18.900;2023-05-08T03:26:20;99637.96;;;7.15;62.48
35758;BME280;21879;50.110;18.900;2023-05-08T03:36:46;99643.39;;;7.09;62.51
35758;BME280;21879;50.110;18.900;2023-05-08T03:47:13;99647.73;;;6.94;62.50
35758;BME280;21879;50.110;18.900;2023-05-08T03:57:44;99651.13;;;6.99;62.42
35758;BME280;21879;50.110;18.900;2023-05-08T04:08:17;99654.88;;;6.87;62.20
35758;BME280;21879;50.110;18.900;2023-05-08T04:18:46;99658.30;;;6.86;62.52
35758;BME280;21879;50.110;18.900;2023-05-08T04:29:14;99673.75;;;6.89;62.45
35758;BME280;21879;50.110;18.900;2023-05-08T04:39:40;99680.73;;;6.93;62.35
35758;BME280;21879;50.110;18.900;2023-05-08T04:50:08;99690.32;;;7.04;62.31
35758;BME280;21879;50.110;18.900;2023-05-08T05:00:34;99707.30;;;7.06;62.19
35758;BME280;21879;50.110;18.900;2023-05-08T05:11:00;99711.96;;;7.14;62.37
35758;BME280;21879;50.110;18.900;2023-05-08T05:21:25;99727.52;;;7.21;62.14
35758;BME280;21879;50.110;18.900;2023-05-08T05:31:51;99733.15;;;7.27;61.99
35758;BME280;21879;50.110;18.900;2023-05-08T05:42:17;99734.27;;;7.66;61.92
35758;BME280;21879;50.110;18.900;2023-05-08T05:52:42;99740.29;;;8.03;60.76
35758;BME280;21879;50.110;18.900;2023-05-08T06:03:08;99766.92;;;8.21;59.79
35758;BME280;21879;50.110;18.900;2023-05-08T06:13:36;99774.14;;;7.98;59.05
35758;BME280;21879;50.110;18.900;2023-05-08T06:24:04;99775.91;;;8.19;58.99
35758;BME280;21879;50.110;18.900;2023-05-08T06:34:30;99774.71;;;8.61;57.92
35758;BME280;21879;50.110;18.900;2023-05-08T06:44:55;99778.70;;;8.73;56.51
35758;BME280;21879;50.110;18.900;2023-05-08T06:55:22;99797.27;;;8.31;56.43
35758;BME280;21879;50.110;18.900;2023-05-08T07:05:48;99806.34;;;8.16;56.80
35758;BME280;21879;50.110;18.900;2023-05-08T07:16:14;99812.13;;;8.20;56.55
35758;BME280;21879;50.110;18.900;2023-05-08T07:26:40;99813.74;;;8.04;55.99
35758;BME280;21879;50.110;18.900;2023-05-08T07:37:07;99824.12;;;8.03;56.22
35758;BME280;21879;50.110;18.900;2023-05-08T07:47:33;99832.46;;;8.13;56.37
35758;BME280;21879;50.110;18.900;2023-05-08T07:57:58;99833.96;;;8.20;56.10
35758;BME280;21879;50.110;18.900;2023-05-08T08:08:25;99830.03;;;8.33;55.79
35758;BME280;21879;50.110;18.900;2023-05-08T08:18:52;99833.05;;;8.36;55.41
35758;BME280;21879;50.110;18.900;2023-05-08T08:29:18;99836.46;;;8.34;55.53
35758;BME280;21879;50.110;18.900;2023-05-08T08:39:44;99838.71;;;8.42;55.37
35758;BME280;21879;50.110;18.900;2023-05-08T08:50:13;99846.04;;;8.45;55.23
35758;BME280;21879;50.110;18.900;2023-05-08T09:00:40;99845.63;;;8.61;55.15
35758;BME280;21879;50.110;18.900;2023-05-08T09:11:06;99862.23;;;8.81;54.96
35758;BME280;21879;50.110;18.900;2023-05-08T09:21:32;99865.44;;;8.95;54.37
35758;BME280;21879;50.110;18.900;2023-05-08T09:31:58;99862.16;;;9.21;54.33
35758;BME280;21879;50.110;18.900;2023-05-08T09:42:24;99856.98;;;9.48;53.92
35758;BME280;21879;50.110;18.900;2023-05-08T09:52:55;99853.30;;;9.72;53.63
35758;BME280;21879;50.110;18.900;2023-05-08T10:03:22;99844.75;;;9.69;53.05
35758;BME280;21879;50.110;18.900;2023-05-08T10:13:48;99844.35;;;9.63;52.76
35758;BME280;21879;50.110;18.900;2023-05-08T10:24:16;99847.25;;;9.60;52.76
35758;BME280;21879;50.110;18.900;2023-05-08T10:34:41;99836.36;;;9.79;52.57
35758;BME280;21879;50.110;18.900;2023-05-08T10:45:09;99827.44;;;9.88;52.17
35758;BME280;21879;50.110;18.900;2023-05-08T10:55:37;99816.33;;;10.05;52.21
35758;BME280;21879;50.110;18.900;2023-05-08T11:06:05;99817.67;;;10.20;51.45
35758;BME280;21879;50.110;18.900;2023-05-08T11:17:11;99817.15;;;10.32;51.60
35758;BME280;21879;50.110;18.900;2023-05-08T11:28:11;99822.58;;;10.36;51.06
35758;BME280;21879;50.110;18.900;2023-05-08T11:38:42;99812.55;;;10.25;50.39
35758;BME280;21879;50.110;18.900;2023-05-08T11:49:13;99807.70;;;10.26;50.51
35758;BME280;21879;50.110;18.900;2023-05-08T11:59:42;99793.01;;;10.34;50.51
35758;BME280;21879;50.110;18.900;2023-05-08T12:10:10;99796.04;;;10.63;50.61
35758;BME280;21879;50.110;18.900;2023-05-08T12:20:36;99796.14;;;10.80;50.12
35758;BME280;21879;50.110;18.900;2023-05-08T12:31:20;99796.30;;;10.77;49.41
35758;BME280;21879;50.110;18.900;2023-05-08T12:41:50;99791.84;;;10.87;50.15
35758;BME280;21879;50.110;18.900;2023-05-08T12:52:17;99792.38;;;11.17;49.45
35758;BME280;21879;50.110;18.900;2023-05-08T13:02:52;99787.20;;;11.24;49.25
35758;BME280;21879;50.110;18.900;2023-05-08T13:13:19;99783.10;;;11.41;49.04
35758;BME280;21879;50.110;18.900;2023-05-08T13:23:46;99789.52;;;11.35;48.19
35758;BME280;21879;50.110;18.900;2023-05-08T13:34:12;99779.58;;;11.33;47.82
35758;BME280;21879;50.110;18.900;2023-05-08T13:44:38;99774.38;;;11.39;47.75
35758;BME280;21879;50.110;18.900;2023-05-08T13:55:06;99777.84;;;11.35;47.37
35758;BME280;21879;50.110;18.900;2023-05-08T14:05:31;99778.83;;;11.22;47.84
35758;BME280;21879;50.110;18.900;2023-05-08T14:15:57;99767.33;;;11.21;48.12
35758;BME280;21879;50.110;18.900;2023-05-08T14:26:23;99756.95;;;11.38;47.69
35758;BME280;21879;50.110;18.900;2023-05-08T14:36:50;99766.39;;;11.45;47.43
35758;BME280;21879;50.110;18.900;2023-05-08T14:47:15;99758.41;;;11.50;48.07
35758;BME280;21879;50.110;18.900;2023-05-08T14:57:42;99759.67;;;11.65;48.01
35758;BME280;21879;50.110;18.900;2023-05-08T15:08:08;99760.89;;;11.64;47.71
35758;BME280;21879;50.110;18.900;2023-05-08T15:18:34;99775.53;;;11.65;48.16
35758;BME280;21879;50.110;18.900;2023-05-08T15:29:00;99762.65;;;11.71;48.19
35758;BME280;21879;50.110;18.900;2023-05-08T15:39:26;99757.41;;;11.69;47.54
35758;BME280;21879;50.110;18.900;2023-05-08T15:49:52;99763.98;;;11.51;46.98
35758;BME280;21879;50.110;18.900;2023-05-08T16:00:19;99751.21;;;11.38;46.72
35758;BME280;21879;50.110;18.900;2023-05-08T16:10:49;99744.10;;;11.44;46.64
35758;BME280;21879;50.110;18.900;2023-05-08T16:21:15;99744.11;;;11.52;46.76
35758;BME280;21879;50.110;18.900;2023-05-08T16:31:41;99741.86;;;11.49;47.40
35758;BME280;21879;50.110;18.900;2023-05-08T16:42:07;99742.87;;;11.44;47.23
35758;BME280;21879;50.110;18.900;2023-05-08T16:52:33;99751.94;;;11.43;47.19
35758;BME280;21879;50.110;18.900;2023-05-08T17:02:59;99751.25;;;11.45;47.35
35758;BME280;21879;50.110;18.900;2023-05-08T17:13:25;99758.04;;;11.46;47.61
35758;BME280;21879;50.110;18.900;2023-05-08T17:23:52;99758.92;;;11.50;47.84
35758;BME280;21879;50.110;18.900;2023-05-08T17:34:18;99757.36;;;11.48;47.86
35758;BME280;21879;50.110;18.900;2023-05-08T17:44:44;99744.64;;;11.48;48.00
35758;BME280;21879;50.110;18.900;2023-05-08T17:55:11;99738.54;;;11.48;48.09
35758;BME280;21879;50.110;18.900;2023-05-08T18:05:37;99749.16;;;11.47;48.42
35758;BME280;21879;50.110;18.900;2023-05-08T18:16:03;99756.48;;;11.45;48.41
35758;BME280;21879;50.110;18.900;2023-05-08T18:26:29;99765.48;;;11.38;48.55
35758;BME280;21879;50.110;18.900;2023-05-08T18:36:54;99766.85;;;11.29;48.59
35758;BME280;21879;50.110;18.900;2023-05-08T18:47:21;99768.90;;;11.22;48.86
35758;BME280;21879;50.110;18.900;2023-05-08T18:57:47;99776.16;;;11.11;48.78
35758;BME280;21879;50.110;18.900;2023-05-08T19:08:12;99785.27;;;10.90;49.15
35758;BME280;21879;50.110;18.900;2023-05-08T19:18:39;99777.02;;;10.84;49.53
35758;BME280;21879;50.110;18.900;2023-05-08T19:29:05;99774.80;;;10.62;49.57
35758;BME280;21879;50.110;18.900;2023-05-08T19:39:31;99772.91;;;10.42;50.02
35758;BME280;21879;50.110;18.900;2023-05-08T19:49:56;99769.26;;;10.24;50.35
35758;BME280;21879;50.110;18.900;2023-05-08T20:00:22;99761.65;;;10.11;50.83
35758;BME280;21879;50.110;18.900;2023-05-08T20:10:49;99757.34;;;9.96;51.02
35758;BME280;21879;50.110;18.900;2023-05-08T20:21:14;99751.18;;;9.72;51.26
35758;BME280;21879;50.110;18.900;2023-05-08T20:31:39;99748.52;;;9.51;51.65
35758;BME280;21879;50.110;18.900;2023-05-08T20:42:05;99746.66;;;9.40;51.98
35758;BME280;21879;50.110;18.900;2023-05-08T20:52:31;99739.48;;;9.21;52.51
35758;BME280;21879;50.110;18.900;2023-05-08T21:03:01;99738.80;;;9.08;52.86
35758;BME280;21879;50.110;18.900;2023-05-08T21:13:27;99733.59;;;9.08;53.12
35758;BME280;21879;50.110;18.900;2023-05-08T21:23:53;99734.48;;;8.98;53.34
35758;BME280;21879;50.110;18.900;2023-05-08T21:34:19;99736.82;;;8.66;53.72
35758;BME280;21879;50.110;18.900;2023-05-08T21:44:45;99727.52;;;8.46;54.19
35758;BME280;21879;50.110;18.900;2023-05-08T21:55:11;99717.58;;;8.33;54.70
35758;BME280;21879;50.110;18.900;2023-05-08T22:05:38;99722.95;;;8.22;55.09
35758;BME280;21879;50.110;18.900;2023-05-08T22:16:05;99709.69;;;8.27;55.30
35758;BME280;21879;50.110;18.900;2023-05-08T22:26:31;99699.23;;;8.35;55.23
35758;BME280;21879;50.110;18.900;2023-05-08T22:36:57;99695.69;;;8.30;55.40
35758;BME280;21879;50.110;18.900;2023-05-08T22:47:23;99692.96;;;8.33;55.52
35758;BME280;21879;50.110;18.900;2023-05-08T22:57:49;99687.64;;;8.45;55.40
35758;BME280;21879;50.110;18.900;2023-05-08T23:08:15;99691.77;;;8.43;55.57
35758;BME280;21879;50.110;18.900;2023-05-08T23:18:40;99685.87;;;8.32;55.40
35758;BME280;21879;50.110;18.900;2023-05-08T23:29:06;99680.09;;;8.07;55.82
35758;BME280;21879;50.110;18.900;2023-05-08T23:39:33;99676.36;;;7.91;56.37
35758;BME280;21879;50.110;18.900;2023-05-08T23:50:05;99665.64;;;8.13;56.51
